Monday, October 15, 2018, 5:26 AM EDT
Back to Local

KGFL, Floyd Bennett Memorial Airport

Location: Queensbury, NY, United States Lat: 43.333
Local Time: 5:26 AM EDT ( 9:26 GMT) Lon: -73.617
Time Zone: US/Eastern Elev: 328 ft

Show me the last for .
Show Decoded

2018-10-15 05:08 METAR KGFL 150908Z AUTO 00000KT 1 3/4SM BR CLR 01/01 A3013 RMK AO2 VIS 1V4
                 T00060006 =
2018-10-15 05:01 METAR KGFL 150901Z AUTO 00000KT 3/4SM BR CLR 00/00 A3013 RMK AO2 T00000000 =
2018-10-15 04:53 METAR KGFL 150853Z AUTO 00000KT 1 1/4SM BR CLR 01/01 A3013 RMK AO2 SLP208 I3000
                 T00060006 58012 =
2018-10-15 04:51 METAR KGFL 150851Z AUTO 00000KT 1 3/4SM BR CLR 01/01 A3013 RMK AO2 =
2018-10-15 04:32 METAR KGFL 150832Z AUTO 00000KT 3SM BR CLR 01/01 A3014 RMK AO2 T00110006 =
2018-10-15 04:14 METAR KGFL 150814Z AUTO 00000KT 1SM BR CLR 01/01 A3014 RMK AO2 T00060006 =
2018-10-15 04:06 METAR KGFL 150806Z AUTO 00000KT 3/4SM BR CLR 01/01 A3014 RMK AO2 T00060006 =
2018-10-15 03:56 METAR KGFL 150756Z AUTO 00000KT 1 3/4SM BR CLR 01/01 A3015 RMK AO2 T00060006 =
2018-10-15 03:53 METAR KGFL 150753Z AUTO 00000KT 5SM BR CLR 01/01 A3015 RMK AO2 SLP214 I1000
                 T00060006 =
2018-10-15 03:35 METAR KGFL 150735Z AUTO 00000KT 4SM BR CLR 01/01 A3015 RMK AO2 T00110011 =
2018-10-15 03:19 METAR KGFL 150719Z AUTO 00000KT 1 1/2SM BR CLR 01/01 A3015 RMK AO2 T00060006 =
2018-10-15 02:57 METAR KGFL 150657Z AUTO 00000KT 4SM BR CLR 01/01 A3016 RMK AO2 T00110011 =
2018-10-15 02:53 METAR KGFL 150653Z AUTO 00000KT 1 1/4SM BR CLR 02/01 A3016 RMK AO2 SLP218
                 T00170011 =
2018-10-15 02:44 METAR KGFL 150644Z AUTO 00000KT 1 1/2SM BR CLR 02/02 A3016 RMK AO2 T00170017 =
2018-10-15 02:37 METAR KGFL 150637Z AUTO 00000KT 3/4SM BR CLR 02/02 A3016 RMK AO2 T00170017 =
2018-10-15 02:26 METAR KGFL 150626Z AUTO 00000KT 1 3/4SM BR CLR 02/02 A3017 RMK AO2 T00170017 =
2018-10-15 02:16 METAR KGFL 150616Z AUTO 00000KT 10SM CLR 02/02 A3018 RMK AO2 T00170017 =
2018-10-15 02:09 METAR KGFL 150609Z AUTO 00000KT 2SM BR CLR 02/02 A3018 RMK AO2 T00170017 =
2018-10-15 01:53 METAR KGFL 150553Z AUTO 00000KT 3/4SM BR CLR 02/02 A3017 RMK AO2 SLP220
                 T00170017 10083 20017 58005 =
2018-10-15 01:44 METAR KGFL 150544Z AUTO 00000KT 1 3/4SM BR CLR 02/02 A3017 RMK AO2 T00170017 =
2018-10-15 00:53 METAR KGFL 150453Z AUTO 00000KT 4SM BR CLR 03/03 A3019 RMK AO2 SLP226 T00280028
                 401391006 =
2018-10-15 00:08 METAR KGFL 150408Z AUTO 00000KT 9SM CLR 04/03 A3017 RMK AO2 T00390033 =
2018-10-14 23:53 METAR KGFL 150353Z AUTO 00000KT 2 1/2SM BR CLR 03/03 A3018 RMK AO2 SLP225
                 T00330033 =
2018-10-14 23:48 METAR KGFL 150348Z AUTO 00000KT 6SM BR CLR 03/03 A3018 RMK AO2 =
2018-10-14 23:40 METAR KGFL 150340Z AUTO 00000KT 2 1/2SM BR CLR 03/03 A3018 RMK AO2 VIS 1V5
                 T00280028 =
2018-10-14 22:53 METAR KGFL 150253Z AUTO 00000KT 10SM CLR 04/03 A3019 RMK AO2 SLP228 T00390033
                 51012 =
2018-10-14 21:53 METAR KGFL 150153Z AUTO 00000KT 10SM CLR 04/04 A3018 RMK AO2 SLP225 T00440039 =
2018-10-14 20:53 METAR KGFL 150053Z AUTO 00000KT 10SM CLR 07/04 A3016 RMK AO2 SLP220 T00670044 =
2018-10-14 19:53 METAR KGFL 142353Z AUTO 19006KT 10SM CLR 08/04 A3015 RMK AO2 SLP217 T00830039
                 10139 20067 53003 =
2018-10-14 18:53 METAR KGFL 142253Z AUTO 19005KT 10SM CLR 08/04 A3015 RMK AO2 SLP216 T00780044 =
2018-10-14 17:53 METAR KGFL 142153Z AUTO 19006KT 10SM CLR 12/04 A3015 RMK AO2 SLP214 T01170039 =
2018-10-14 16:53 METAR KGFL 142053Z AUTO 21005KT 10SM CLR 14/04 A3015 RMK AO2 SLP213 T01390044
                 56005 =
2018-10-14 15:53 METAR KGFL 141953Z AUTO 18009KT 10SM CLR 14/04 A3015 RMK AO2 SLP213 T01390044 =
2018-10-14 14:53 METAR KGFL 141853Z AUTO 17007KT 140V200 10SM FEW047 13/03 A3015 RMK AO2 SLP216
                 T01280033 =
2018-10-14 13:53 METAR KGFL 141753Z AUTO 15006KT 10SM FEW045 12/04 A3016 RMK AO2 SLP218 T01220039
                 10133 20006 58010 =
2018-10-14 12:53 METAR KGFL 141653Z AUTO 20008KT 10SM SCT042 12/03 A3018 RMK AO2 SLP225 T01220028
                 =
2018-10-14 11:53 METAR KGFL 141553Z AUTO 22010KT 10SM BKN040 11/03 A3020 RMK AO2 SLP230 T01110033
                 =
2018-10-14 10:53 METAR KGFL 141453Z AUTO 22005KT 10SM CLR 09/03 A3019 RMK AO2 SLP228 T00940028
                 50007 =
2018-10-14 09:53 METAR KGFL 141353Z AUTO 18006KT 10SM CLR 08/05 A3020 RMK AO2 SLP231 T00780050 =
2018-10-14 08:53 METAR KGFL 141253Z AUTO 00000KT 10SM CLR 04/03 A3018 RMK AO2 SLP227 T00390033 =
2018-10-14 07:53 METAR KGFL 141153Z AUTO 00000KT 10SM CLR 01/01 A3017 RMK AO2 SLP223 70001 I1000
                 I6000 T00060006 10022 21006 51014 =
2018-10-14 07:31 METAR KGFL 141131Z AUTO 00000KT 3SM BR CLR 01/01 A3016 RMK AO2 I1000 T00060006 =
2018-10-14 07:26 METAR KGFL 141126Z AUTO 00000KT 1 3/4SM BR CLR 00/00 A3016 RMK AO2 VIS 1V5 I1000
                 T00000000 =
2018-10-14 07:09 METAR KGFL 141109Z AUTO 00000KT 3SM BR CLR 00/00 A3016 RMK AO2 T00000000 =
2018-10-14 07:02 METAR KGFL 141102Z AUTO 00000KT 1 3/4SM BR CLR M01/M01 A3017 RMK AO2 VIS 1V5
                 T10061006 =
2018-10-14 06:53 METAR KGFL 141053Z AUTO 00000KT 9SM CLR 00/00 A3017 RMK AO2 SLP221 T00000000 =
2018-10-14 05:53 METAR KGFL 140953Z AUTO 36003KT 10SM FEW055 01/00 A3015 RMK AO2 SLP215 T00060000
                 =

Support USWX by starting your Amazon purchase here.